Time;durP1;ratioP1;P1;durP2;ratioP2;P2;SDS_P1;SDS_P2;PMS_P1;PMS_P2;Temp;Humidity;BMP_temperature;BMP_pressure;BME280_temperature;BME280_humidity;BME280_pressure;Samples;Min_cycle;Max_cycle;Signal;HPM_P1;HPM_P2
2023/10/24 00:01:41;;;;;;;4.13;2.25;;;;;;;;;;5023473;28;20065;-85
2023/10/24 00:04:07;;;;;;;3.25;2.15;;;;;;;;;;5026975;28;20033;-86
2023/10/24 00:06:33;;;;;;;6.20;2.58;;;;;;;;;;5021925;28;20041;-86
2023/10/24 00:08:59;;;;;;;5.10;2.17;;;;;;;;;;5026511;28;20197;-84
2023/10/24 00:11:25;;;;;;;5.45;2.65;;;;;;;;;;5023376;28;20057;-85
2023/10/24 00:13:51;;;;;;;6.70;2.10;;;;;;;;;;5017578;28;20025;-82
2023/10/24 00:16:17;;;;;;;7.05;2.60;;;;;;;;;;5025291;28;20182;-84
2023/10/24 00:18:43;;;;;;;4.40;2.45;;;;;;;;;;5027982;28;20034;-82
2023/10/24 00:21:09;;;;;;;4.13;1.95;;;;;;;;;;5024320;28;20029;-84
2023/10/24 00:23:35;;;;;;;9.57;2.25;;;;;;;;;;5025086;28;20022;-84
2023/10/24 00:26:01;;;;;;;4.68;2.42;;;;;;;;;;5027250;28;20049;-83
2023/10/24 00:28:27;;;;;;;5.28;2.65;;;;;;;;;;5025972;28;20033;-82
2023/10/24 00:30:53;;;;;;;5.35;2.53;;;;;;;;;;5018813;28;20030;-82
2023/10/24 00:33:19;;;;;;;9.48;3.00;;;;;;;;;;5022458;28;20045;-82
2023/10/24 00:35:45;;;;;;;5.75;2.72;;;;;;;;;;5022269;28;20313;-87
2023/10/24 00:38:11;;;;;;;8.05;2.05;;;;;;;;;;5026380;28;20033;-84
2023/10/24 00:40:37;;;;;;;4.93;2.75;;;11.00;99.90;;;;;;5022981;28;20064;-81
2023/10/24 00:43:04;;;;;;;5.32;2.47;;;;;;;;;;5026224;28;20029;-85
2023/10/24 00:45:30;;;;;;;8.13;2.47;;;11.10;99.90;;;;;;5013110;28;20026;-84
2023/10/24 00:47:56;;;;;;;7.10;2.55;;;;;;;;;;5015910;28;20026;-87
2023/10/24 00:50:22;;;;;;;4.68;2.42;;;11.50;99.90;;;;;;5017418;28;20052;-81
2023/10/24 00:52:48;;;;;;;5.15;2.58;;;;;;;;;;5019779;28;20053;-84
2023/10/24 00:55:14;;;;;;;5.53;2.63;;;10.90;99.90;;;;;;5020541;28;20048;-83
2023/10/24 00:57:40;;;;;;;3.45;1.73;;;;;;;;;;5030071;28;20456;-85
2023/10/24 01:00:07;;;;;;;4.22;2.30;;;11.30;99.90;;;;;;5020856;28;20036;-84
2023/10/24 01:02:33;;;;;;;5.10;2.38;;;;;;;;;;5015316;28;20041;-84
2023/10/24 01:05:00;;;;;;;3.90;2.35;;;;;;;;;;5018638;28;20093;-83
2023/10/24 01:07:26;;;;;;;5.55;2.22;;;11.20;99.90;;;;;;5027920;28;20033;-83
2023/10/24 01:09:52;;;;;;;5.13;2.00;;;;;;;;;;5020555;28;20520;-85
2023/10/24 01:12:18;;;;;;;5.00;2.45;;;;;;;;;;5024962;28;20461;-84
2023/10/24 01:14:44;;;;;;;3.78;2.08;;;;;;;;;;5023432;28;20642;-86
2023/10/24 01:17:13;;;;;;;5.22;2.63;;;10.40;99.90;;;;;;5021283;28;20025;-84
2023/10/24 01:19:39;;;;;;;4.78;2.30;;;10.90;99.90;;;;;;5027026;28;20056;-83
2023/10/24 01:22:05;;;;;;;7.47;2.70;;;;;;;;;;5019255;28;20442;-88
2023/10/24 01:24:31;;;;;;;4.15;2.22;;;;;;;;;;5028514;28;20123;-82
2023/10/24 01:26:58;;;;;;;5.85;3.33;;;;;;;;;;5024423;28;20048;-83
2023/10/24 01:29:23;;;;;;;6.10;2.35;;;;;;;;;;5018212;28;20045;-85
2023/10/24 01:31:49;;;;;;;6.18;2.90;;;;;;;;;;5017780;28;20030;-83
2023/10/24 01:34:16;;;;;;;5.20;2.70;;;;;;;;;;5025664;28;20057;-89
2023/10/24 01:36:41;;;;;;;5.50;2.35;;;;;;;;;;5019978;28;20033;-88
2023/10/24 01:39:08;;;;;;;5.38;3.15;;;;;;;;;;5040298;28;20013;-88
2023/10/24 01:41:34;;;;;;;4.28;2.65;;;10.50;99.90;;;;;;5038357;28;20048;-86
2023/10/24 01:44:00;;;;;;;4.93;2.83;;;10.70;99.90;;;;;;5028647;28;20025;-84
2023/10/24 01:46:26;;;;;;;4.55;2.45;;;;;;;;;;5026872;28;20034;-84
2023/10/24 01:48:52;;;;;;;3.67;2.20;;;;;;;;;;5027202;28;20029;-85
2023/10/24 01:51:17;;;;;;;5.10;2.65;;;10.70;99.90;;;;;;5021864;28;20520;-83
2023/10/24 01:53:43;;;;;;;4.47;2.47;;;;;;;;;;5025709;28;20064;-84
2023/10/24 01:56:12;;;;;;;3.63;2.13;;;10.30;99.90;;;;;;5027825;28;20086;-84
2023/10/24 01:58:38;;;;;;;6.28;2.72;;;;;;;;;;5030630;28;20037;-84
2023/10/24 02:01:06;;;;;;;6.07;2.33;;;10.90;99.90;;;;;;5028164;28;20026;-86
2023/10/24 02:03:32;;;;;;;3.80;2.10;;;10.60;99.90;;;;;;5034490;28;20030;-83
2023/10/24 02:05:57;;;;;;;4.95;2.75;;;;;;;;;;5036678;28;20029;-83
2023/10/24 02:08:24;;;;;;;5.97;3.05;;;;;;;;;;5031744;28;20065;-83
2023/10/24 02:10:50;;;;;;;4.05;2.28;;;10.50;99.90;;;;;;5034451;28;20025;-83
2023/10/24 02:13:16;;;;;;;6.25;3.13;;;;;;;;;;5031458;28;20052;-87
2023/10/24 02:15:42;;;;;;;4.25;2.40;;;10.70;99.90;;;;;;5028600;28;20034;-82
2023/10/24 02:18:08;;;;;;;7.93;2.72;;;;;;;;;;5032930;28;20479;-84
2023/10/24 02:20:49;;;;;;;4.47;2.70;;;;;;;;;;5001564;28;20049;-83
2023/10/24 02:23:15;;;;;;;4.35;2.28;;;;;;;;;;5030520;28;20563;-85
2023/10/24 02:25:41;;;;;;;3.95;2.22;;;;;;;;;;5036210;28;20045;-84
2023/10/24 02:28:07;;;;;;;4.30;2.33;;;;;;;;;;5025083;28;20028;-83
2023/10/24 02:30:37;;;;;;;5.35;2.80;;;9.90;99.90;;;;;;5030794;28;20507;-86
2023/10/24 02:33:03;;;;;;;5.65;2.88;;;;;;;;;;5026805;28;20527;-85
2023/10/24 02:35:29;;;;;;;4.50;2.45;;;;;;;;;;5032483;28;20056;-84
2023/10/24 02:37:55;;;;;;;4.47;3.05;;;;;;;;;;5025968;28;20025;-82
2023/10/24 02:40:21;;;;;;;6.28;2.08;;;;;;;;;;5035624;28;20017;-84
2023/10/24 02:42:47;;;;;;;4.15;2.17;;;;;;;;;;5028361;28;20048;-83
2023/10/24 02:45:13;;;;;;;3.17;1.80;;;;;;;;;;5027638;28;20215;-84
2023/10/24 02:47:38;;;;;;;2.67;1.95;;;;;;;;;;5026617;28;20049;-81
2023/10/24 02:50:06;;;;;;;6.03;2.13;;;10.20;99.90;;;;;;5027301;28;20026;-82
2023/10/24 02:52:32;;;;;;;8.80;2.00;;;;;;;;;;5027465;28;20712;-88
2023/10/24 02:54:57;;;;;;;3.42;2.03;;;10.40;99.90;;;;;;5031556;28;20021;-81
2023/10/24 02:57:23;;;;;;;4.18;2.22;;;;;;;;;;5027253;28;20040;-88
2023/10/24 02:59:49;;;;;;;3.50;1.75;;;;;;;;;;5025633;28;20034;-84
2023/10/24 03:02:15;;;;;;;5.57;2.55;;;;;;;;;;5022260;28;20576;-82
2023/10/24 03:04:41;;;;;;;2.88;1.92;;;;;;;;;;5033441;28;20021;-85
2023/10/24 03:07:07;;;;;;;3.55;1.77;;;;;;;;;;5028748;28;20377;-82
2023/10/24 03:09:33;;;;;;;3.55;2.05;;;;;;;;;;5028772;28;20045;-82
2023/10/24 03:12:00;;;;;;;4.63;2.42;;;;;;;;;;5030766;28;20034;-82
2023/10/24 03:14:26;;;;;;;3.97;1.90;;;;;;;;;;5024909;28;20045;-83
2023/10/24 03:16:52;;;;;;;2.75;1.65;;;;;;;;;;5024894;28;20056;-85
2023/10/24 03:19:18;;;;;;;8.77;3.05;;;;;;;;;;5023911;28;20040;-85
2023/10/24 03:21:44;;;;;;;3.45;1.73;;;;;;;;;;5028788;28;20100;-84
2023/10/24 03:24:10;;;;;;;3.25;2.00;;;;;;;;;;5029751;28;20062;-85
2023/10/24 03:26:36;;;;;;;4.57;2.30;;;;;;;;;;5029803;28;20061;-85
2023/10/24 03:29:02;;;;;;;4.50;2.70;;;;;;;;;;5026509;28;20053;-86
2023/10/24 03:31:28;;;;;;;5.03;2.67;;;;;;;;;;5023476;28;20129;-86
2023/10/24 03:33:54;;;;;;;6.35;3.22;;;;;;;;;;5027789;28;20064;-83
2023/10/24 03:36:20;;;;;;;4.47;2.33;;;;;;;;;;5028722;28;20033;-85
2023/10/24 03:38:46;;;;;;;5.90;3.30;;;;;;;;;;5028321;28;20037;-86
2023/10/24 03:41:12;;;;;;;4.95;2.40;;;;;;;;;;5033554;28;20083;-85
2023/10/24 03:43:39;;;;;;;4.47;2.30;;;;;;;;;;5026076;28;20029;-85
2023/10/24 03:46:06;;;;;;;8.50;2.55;;;;;;;;;;5022556;28;20436;-83
2023/10/24 03:48:31;;;;;;;6.75;3.15;;;10.60;99.90;;;;;;5023794;28;20033;-84
2023/10/24 03:51:00;;;;;;;4.93;2.47;;;10.60;99.90;;;;;;5030171;28;20030;-81
2023/10/24 03:53:26;;;;;;;3.42;2.38;;;;;;;;;;5028050;28;20105;-85
2023/10/24 03:55:57;;;;;;;4.85;2.47;;;;;;;;;;5031051;28;20068;-84
2023/10/24 03:58:23;;;;;;;4.05;2.40;;;;;;;;;;5029584;28;20080;-83
2023/10/24 04:00:48;;;;;;;4.28;2.47;;;;;;;;;;5027854;28;20425;-84
2023/10/24 04:03:14;;;;;;;4.18;2.28;;;;;;;;;;5028265;28;20032;-83
2023/10/24 04:05:40;;;;;;;3.90;2.47;;;;;;;;;;5031883;28;20052;-86
2023/10/24 04:08:07;;;;;;;5.03;2.83;;;;;;;;;;5028318;28;20037;-86
2023/10/24 04:10:34;;;;;;;4.40;2.58;;;10.40;99.90;;;;;;5019860;28;20114;-84
2023/10/24 04:13:00;;;;;;;10.98;3.88;;;9.70;99.90;;;;;;5031661;28;20490;-82
2023/10/24 04:15:27;;;;;;;6.32;3.15;;;;;;;;;;5022955;28;20119;-84
2023/10/24 04:17:53;;;;;;;4.68;2.72;;;;;;;;;;5035512;28;20083;-85
2023/10/24 04:20:19;;;;;;;5.53;3.30;;;;;;;;;;5033898;28;20052;-83
2023/10/24 04:22:47;;;;;;;5.80;3.30;;;10.60;99.90;;;;;;5029110;28;20034;-83
2023/10/24 04:25:13;;;;;;;8.05;4.18;;;;;;;;;;5023725;28;20053;-87
2023/10/24 04:27:39;;;;;;;9.15;4.43;;;;;;;;;;5017560;28;20482;-82
2023/10/24 04:30:07;;;;;;;12.43;4.78;;;10.40;99.90;;;;;;5015280;28;20446;-85
2023/10/24 04:32:33;;;;;;;8.40;3.92;;;;;;;;;;5013863;28;20045;-82
2023/10/24 04:35:00;;;;;;;6.90;3.88;;;;;;;;;;5020492;28;20024;-83
2023/10/24 04:37:25;;;;;;;9.30;3.83;;;10.50;99.90;;;;;;5021773;28;20546;-82
2023/10/24 04:39:51;;;;;;;9.23;4.22;;;;;;;;;;5012589;28;20029;-91
2023/10/24 04:42:17;;;;;;;5.30;2.72;;;;;;;;;;5001704;28;20560;-85
2023/10/24 04:44:43;;;;;;;4.82;2.85;;;;;;;;;;5005024;28;20030;-83
2023/10/24 04:47:09;;;;;;;11.65;4.55;;;;;;;;;;5014079;28;20026;-83
2023/10/24 04:49:38;;;;;;;6.00;3.28;;;;;;;;;;5024542;28;20030;-84
2023/10/24 04:52:04;;;;;;;7.25;3.95;;;10.20;99.90;;;;;;5001337;28;20029;-82
2023/10/24 04:54:30;;;;;;;8.80;3.03;;;;;;;;;;5014843;28;20029;-87
2023/10/24 04:56:58;;;;;;;7.72;3.00;;;;;;;;;;5013853;28;20028;-86
2023/10/24 04:59:23;;;;;;;7.05;3.42;;;10.20;99.90;;;;;;5013496;28;20047;-82
2023/10/24 05:01:49;;;;;;;4.40;2.35;;;;;;;;;;5019381;28;20555;-84
2023/10/24 05:04:15;;;;;;;5.18;3.28;;;;;;;;;;5017156;28;20037;-82
2023/10/24 05:06:43;;;;;;;13.23;4.55;;;;;;;;;;5018917;28;20049;-86
2023/10/24 05:09:09;;;;;;;10.52;4.05;;;10.60;99.90;;;;;;5023753;28;20049;-82
2023/10/24 05:11:39;;;;;;;7.45;3.50;;;;;;;;;;5035936;28;20017;-88
2023/10/24 05:14:05;;;;;;;8.18;3.67;;;;;;;;;;5036606;28;20033;-87
2023/10/24 05:16:31;;;;;;;7.53;3.78;;;;;;;;;;5031214;28;20029;-86
2023/10/24 05:18:57;;;;;;;6.65;3.10;;;;;;;;;;5028745;28;20751;-87
2023/10/24 05:21:23;;;;;;;9.05;3.00;;;;;;;;;;5031258;28;20060;-84
2023/10/24 05:23:49;;;;;;;4.78;2.92;;;;;;;;;;5016848;28;20512;-84
2023/10/24 05:26:15;;;;;;;6.20;3.10;;;;;;;;;;5021717;28;20045;-84
2023/10/24 05:28:41;;;;;;;7.78;2.70;;;;;;;;;;5013760;28;20040;-87
2023/10/24 05:31:08;;;;;;;6.55;2.88;;;10.30;99.90;;;;;;5014988;28;20060;-84
2023/10/24 05:33:35;;;;;;;5.80;2.92;;;10.30;99.90;;;;;;5006024;28;20029;-83
2023/10/24 05:36:01;;;;;;;7.68;3.45;;;;;;;;;;5011758;28;20041;-83
2023/10/24 05:38:27;;;;;;;5.80;3.28;;;;;;;;;;5013540;28;20451;-85
2023/10/24 05:40:53;;;;;;;19.90;8.02;;;;;;;;;;5022736;28;20029;-82
2023/10/24 05:43:19;;;;;;;23.13;7.25;;;;;;;;;;5014739;28;20040;-83
2023/10/24 05:45:45;;;;;;;21.02;6.20;;;;;;;;;;5019204;28;20041;-82
2023/10/24 05:48:11;;;;;;;15.25;5.90;;;;;;;;;;5015190;28;20018;-83
2023/10/24 05:50:39;;;;;;;17.00;5.53;;;;;;;;;;5028806;28;20037;-81
2023/10/24 05:53:04;;;;;;;9.55;4.50;;;10.10;99.90;;;;;;5028431;28;20067;-82
2023/10/24 05:55:30;;;;;;;6.38;3.40;;;;;;;;;;5022093;28;20435;-83
2023/10/24 05:57:56;;;;;;;11.13;4.97;;;;;;;;;;5033103;28;20030;-87
2023/10/24 06:00:22;;;;;;;17.92;8.32;;;;;;;;;;5031919;28;20060;-87
2023/10/24 06:02:48;;;;;;;16.80;7.72;;;9.70;99.90;;;;;;5025248;28;20650;-85
2023/10/24 06:05:14;;;;;;;15.90;7.05;;;;;;;;;;5029185;28;20029;-85
2023/10/24 06:07:40;;;;;;;10.35;5.05;;;;;;;;;;5029724;28;20021;-84
2023/10/24 06:10:06;;;;;;;14.80;7.60;;;10.30;99.90;;;;;;5027189;28;20270;-85
2023/10/24 06:12:32;;;;;;;17.20;8.80;;;;;;;;;;5031337;28;20044;-84
2023/10/24 06:14:58;;;;;;;11.95;7.38;;;;;;;;;;5022322;28;20045;-84
2023/10/24 06:17:24;;;;;;;18.42;7.65;;;;;;;;;;5019235;28;20577;-86
2023/10/24 06:19:51;;;;;;;12.57;6.70;;;;;;;;;;5032544;28;20029;-84
2023/10/24 06:22:17;;;;;;;15.35;5.72;;;;;;;;;;5032892;28;20028;-85
2023/10/24 06:24:43;;;;;;;7.20;3.85;;;;;;;;;;5015277;28;20030;-85
2023/10/24 06:27:10;;;;;;;6.40;4.07;;;;;;;;;;5020990;28;20030;-84
2023/10/24 06:29:36;;;;;;;6.45;3.33;;;;;;;;;;5033379;28;20036;-85
2023/10/24 06:32:02;;;;;;;6.03;3.67;;;;;;;;;;5030486;28;20073;-87
2023/10/24 06:34:28;;;;;;;5.80;3.25;;;;;;;;;;5036910;28;20037;-85
2023/10/24 06:36:54;;;;;;;5.72;3.40;;;;;;;;;;5035778;28;20063;-85
2023/10/24 06:39:20;;;;;;;6.85;2.92;;;10.40;99.90;;;;;;5031839;28;20025;-84
2023/10/24 06:41:45;;;;;;;7.65;3.50;;;10.40;99.90;;;;;;5033347;28;20030;-84
2023/10/24 06:44:11;;;;;;;6.72;3.13;;;;;;;;;;5037662;28;20064;-86
2023/10/24 06:46:37;;;;;;;6.45;2.92;;;;;;;;;;5036752;28;20021;-83
2023/10/24 06:49:03;;;;;;;6.18;3.50;;;;;;;;;;5037230;28;20029;-84
2023/10/24 06:51:29;;;;;;;5.22;3.25;;;;;;;;;;5030183;28;20427;-85
2023/10/24 06:53:55;;;;;;;7.30;3.88;;;;;;;;;;5039703;28;20508;-85
2023/10/24 06:56:21;;;;;;;12.68;5.32;;;;;;;;;;5035473;28;20105;-85
2023/10/24 06:58:47;;;;;;;6.60;3.92;;;;;;;;;;5036041;28;20034;-85
2023/10/24 07:01:13;;;;;;;5.85;3.42;;;;;;;;;;5026857;28;20026;-87
2023/10/24 07:03:39;;;;;;;6.30;3.20;;;;;;;;;;5022387;28;20034;-86
2023/10/24 07:06:05;;;;;;;6.18;3.03;;;;;;;;;;5021907;28;20217;-86
2023/10/24 07:08:31;;;;;;;7.85;4.03;;;;;;;;;;5021912;28;20057;-87
2023/10/24 07:10:57;;;;;;;7.20;3.70;;;;;;;;;;5029077;28;20531;-86
2023/10/24 07:13:23;;;;;;;6.55;2.92;;;;;;;;;;5026834;28;20052;-86
2023/10/24 07:15:49;;;;;;;5.00;2.83;;;;;;;;;;5022063;28;20101;-84
2023/10/24 07:18:15;;;;;;;5.25;2.63;;;;;;;;;;5021743;28;20403;-87
2023/10/24 07:20:43;;;;;;;6.10;3.60;;;;;;;;;;5021351;28;20025;-88
2023/10/24 07:23:08;;;;;;;6.05;3.75;;;;;;;;;;5021830;28;20036;-86
2023/10/24 07:25:34;;;;;;;8.70;3.58;;;;;;;;;;5023181;28;20083;-84
2023/10/24 07:28:01;;;;;;;6.80;3.72;;;;;;;;;;5036391;28;20017;-86
2023/10/24 07:30:27;;;;;;;6.47;3.63;;;;;;;;;;5040789;28;20506;-87
2023/10/24 07:32:54;;;;;;;7.25;3.47;;;;;;;;;;5041024;28;20029;-87
2023/10/24 07:35:20;;;;;;;7.75;3.85;;;;;;;;;;5036883;28;20018;-85
2023/10/24 07:37:45;;;;;;;4.43;2.75;;;11.40;99.90;;;;;;5027547;28;20037;-87
2023/10/24 07:40:12;;;;;;;4.95;3.33;;;;;;;;;;5042437;28;20040;-86
2023/10/24 07:42:37;;;;;;;7.40;3.95;;;;;;;;;;5039449;28;20032;-85
2023/10/24 07:45:04;;;;;;;8.63;3.45;;;;;;;;;;5030395;28;20034;-87
2023/10/24 07:47:29;;;;;;;7.25;3.72;;;;;;;;;;5025409;28;20036;-86
2023/10/24 07:49:55;;;;;;;5.60;2.95;;;;;;;;;;5036182;28;20025;-87
2023/10/24 07:52:21;;;;;;;5.85;3.55;;;;;;;;;;5031413;28;20508;-87
2023/10/24 07:54:47;;;;;;;7.90;3.50;;;;;;;;;;5035654;28;20025;-86
2023/10/24 07:57:13;;;;;;;11.95;3.45;;;;;;;;;;5038957;28;20072;-87
2023/10/24 07:59:39;;;;;;;6.90;3.63;;;;;;;;;;5031915;28;20025;-83
2023/10/24 08:02:05;;;;;;;5.85;2.80;;;;;;;;;;5025141;28;20021;-88
2023/10/24 08:04:32;;;;;;;7.63;3.55;;;;;;;;;;5028617;28;20040;-85
2023/10/24 08:06:59;;;;;;;6.60;3.25;;;;;;;;;;5028348;28;20022;-84
2023/10/24 08:09:25;;;;;;;7.88;3.83;;;;;;;;;;5030271;28;20496;-84
2023/10/24 08:11:51;;;;;;;6.13;3.78;;;;;;;;;;5025678;28;20796;-88
2023/10/24 08:14:17;;;;;;;4.35;2.83;;;;;;;;;;5035446;28;20049;-84
2023/10/24 08:16:42;;;;;;;5.28;3.22;;;;;;;;;;5022614;28;20516;-84
2023/10/24 08:19:09;;;;;;;15.10;3.95;;;;;;;;;;5028776;28;20421;-84
2023/10/24 08:21:34;;;;;;;8.35;3.67;;;;;;;;;;5027341;28;20017;-83
2023/10/24 08:24:00;;;;;;;4.03;2.63;;;;;;;;;;5034523;28;20030;-82
2023/10/24 08:26:26;;;;;;;5.82;3.20;;;;;;;;;;5027008;28;20128;-83
2023/10/24 08:28:53;;;;;;;6.50;3.75;;;11.60;99.90;;;;;;5030911;28;20221;-84
2023/10/24 08:31:19;;;;;;;6.65;3.83;;;;;;;;;;5032710;28;20037;-86
2023/10/24 08:33:45;;;;;;;9.02;4.35;;;;;;;;;;5034375;28;20021;-86
2023/10/24 08:36:11;;;;;;;9.32;3.70;;;;;;;;;;5030857;28;20056;-83
2023/10/24 08:38:37;;;;;;;5.45;3.88;;;;;;;;;;5027023;28;20037;-85
2023/10/24 08:41:03;;;;;;;6.47;3.75;;;;;;;;;;5023541;28;20052;-88
2023/10/24 08:43:29;;;;;;;6.07;4.10;;;;;;;;;;5033472;28;20102;-85
2023/10/24 08:45:57;;;;;;;10.98;3.55;;;12.60;99.90;;;;;;5027387;28;20026;-85
2023/10/24 08:48:24;;;;;;;5.32;3.00;;;12.00;99.90;;;;;;5030766;28;20022;-85
2023/10/24 08:50:50;;;;;;;8.40;3.88;;;;;;;;;;5033283;28;20032;-86
2023/10/24 08:53:16;;;;;;;10.93;4.22;;;;;;;;;;5035530;28;20060;-85
2023/10/24 08:55:52;;;;;;;4.85;2.67;;;12.40;99.90;;;;;;5030728;28;20052;-85
2023/10/24 08:58:19;;;;;;;5.65;3.28;;;12.30;99.90;;;;;;5047276;28;20026;-86
2023/10/24 09:00:46;;;;;;;4.85;2.95;;;12.40;99.90;;;;;;5049296;28;20140;-86
2023/10/24 09:03:13;;;;;;;5.18;2.95;;;;;;;;;;5044175;28;20072;-85
2023/10/24 09:05:41;;;;;;;10.30;3.15;;;;;;;;;;5050253;28;20025;-85
2023/10/24 09:08:07;;;;;;;3.75;2.47;;;;;;;;;;5040369;28;20038;-86
2023/10/24 09:10:33;;;;;;;7.68;3.22;;;;;;;;;;5038267;28;20049;-84
2023/10/24 09:12:59;;;;;;;4.55;2.72;;;;;;;;;;5037477;28;20040;-84
2023/10/24 09:15:25;;;;;;;4.75;2.63;;;;;;;;;;5037233;28;20013;-85
2023/10/24 09:17:53;;;;;;;4.18;2.60;;;11.90;99.90;;;;;;5033430;28;20097;-85
2023/10/24 09:20:19;;;;;;;4.70;2.83;;;;;;;;;;5040053;28;20042;-85
2023/10/24 09:22:45;;;;;;;4.20;2.50;;;;;;;;;;5035908;28;20029;-86
2023/10/24 09:25:11;;;;;;;4.40;2.38;;;;;;;;;;5037753;28;20036;-85
2023/10/24 09:27:37;;;;;;;4.30;2.40;;;;;;;;;;5031223;28;20389;-85
2023/10/24 09:30:12;;;;;;;5.38;2.88;;;12.20;99.90;;;;;;5035612;28;20108;-84
2023/10/24 09:32:41;;;;;;;6.40;3.15;;;12.30;99.90;;;;;;5033736;28;20041;-84
2023/10/24 09:35:08;;;;;;;4.88;2.42;;;12.20;99.90;;;;;;5037054;28;20033;-85
2023/10/24 09:37:34;;;;;;;7.03;3.17;;;;;;;;;;5035578;28;20073;-83
2023/10/24 09:40:00;;;;;;;6.30;3.10;;;11.70;99.90;;;;;;5034446;28;20029;-85
2023/10/24 09:42:27;;;;;;;4.10;2.75;;;;;;;;;;5033736;28;20033;-85
2023/10/24 09:44:55;;;;;;;4.22;1.95;;;12.10;99.90;;;;;;5035220;28;20060;-84
2023/10/24 09:47:22;;;;;;;4.82;2.95;;;11.70;99.90;;;;;;5030126;28;20041;-84
2023/10/24 09:49:52;;;;;;;6.95;3.10;;;12.30;99.90;;;;;;5035420;28;20040;-84
2023/10/24 09:52:19;;;;;;;5.03;2.85;;;12.10;99.90;;;;;;5028654;28;20074;-83
2023/10/24 09:54:48;;;;;;;10.00;2.95;;;11.90;99.90;;;;;;5034977;28;20052;-85
2023/10/24 09:57:19;;;;;;;4.43;2.55;;;12.10;99.90;;;;;;5026696;28;20048;-84
2023/10/24 09:59:47;;;;;;;6.10;3.00;;;11.80;99.90;;;;;;5032905;28;20022;-83
2023/10/24 10:02:14;;;;;;;32.15;12.00;;;;;;;;;;5033490;28;20025;-84
2023/10/24 10:04:40;;;;;;;24.30;9.50;;;12.30;99.90;;;;;;5036193;28;20049;-84
2023/10/24 10:07:09;;;;;;;16.48;6.82;;;11.80;99.90;;;;;;5028922;28;20051;-82
2023/10/24 10:09:36;;;;;;;9.20;4.43;;;;;;;;;;5034822;28;20059;-84
2023/10/24 10:12:05;;;;;;;6.10;3.22;;;12.50;99.90;;;;;;5026651;28;20033;-82
2023/10/24 10:14:48;;;;;;;6.53;3.90;;;12.00;99.90;;;;;;5028918;28;20523;-83
2023/10/24 10:17:52;;;;;;;5.60;2.22;;;12.30;99.90;;;;;;5031974;28;20018;-82
2023/10/24 10:20:45;;;;;;;3.63;2.25;;;12.50;99.90;;;;;;5027003;28;20056;-82
2023/10/24 10:23:11;;;;;;;4.32;3.40;;;;;;;;;;5027918;28;20476;-83
2023/10/24 10:25:55;;;;;;;5.65;3.08;;;12.70;99.90;;;;;;5035817;28;20041;-82
2023/10/24 10:28:39;;;;;;;4.85;2.67;;;12.70;99.90;;;;;;5030792;28;20053;-80
2023/10/24 10:31:38;;;;;;;5.43;3.20;;;12.50;99.90;;;;;;5019397;28;20511;-83
2023/10/24 10:34:04;;;;;;;7.30;2.15;;;;;;;;;;5022755;28;20104;-83
2023/10/24 10:36:30;;;;;;;6.88;2.88;;;;;;;;;;5024841;28;20519;-81
2023/10/24 10:39:00;;;;;;;5.57;2.72;;;13.10;99.90;;;;;;5032013;28;20423;-82
2023/10/24 10:41:29;;;;;;;4.28;2.70;;;;;;;;;;5025474;28;20483;-82
2023/10/24 10:43:59;;;;;;;5.13;3.10;;;12.30;99.90;;;;;;5028558;28;20484;-82
2023/10/24 10:46:27;;;;;;;5.78;3.10;;;13.00;99.90;;;;;;5010770;28;22027;-80
2023/10/24 10:48:56;;;;;;;7.07;4.78;;;12.70;99.90;;;;;;5028197;28;20025;-81
2023/10/24 10:51:28;;;;;;;7.07;3.63;;;12.80;99.90;;;;;;5025370;28;20120;-81
2023/10/24 10:54:20;;;;;;;6.72;3.83;;;13.00;99.90;;;;;;5027814;28;20045;-82
2023/10/24 10:56:48;;;;;;;6.90;3.60;;;12.20;99.90;;;;;;5019062;28;20571;-83
2023/10/24 10:59:31;;;;;;;4.63;2.53;;;12.80;99.90;;;;;;5022495;28;21951;-81
2023/10/24 11:02:34;;;;;;;9.88;3.15;;;12.60;99.90;;;;;;5016910;28;20030;-82
2023/10/24 11:05:01;;;;;;;10.63;3.38;;;12.80;99.90;;;;;;5027716;28;20036;-84
2023/10/24 11:07:57;;;;;;;3.60;2.03;;;13.30;99.90;;;;;;5024490;28;20030;-82
2023/10/24 11:10:22;;;;;;;3.05;1.70;;;;;;;;;;5025151;28;20034;-82
2023/10/24 11:12:48;;;;;;;3.72;2.40;;;;;;;;;;5015897;28;20035;-84
2023/10/24 11:15:16;;;;;;;3.85;2.20;;;;;;;;;;5013401;28;20029;-83
2023/10/24 11:17:43;;;;;;;5.40;2.47;;;;;;;;;;5022677;28;20311;-84
2023/10/24 11:20:09;;;;;;;5.80;2.65;;;12.20;99.90;;;;;;5023081;28;20507;-81
2023/10/24 11:22:36;;;;;;;6.90;3.00;;;12.30;99.90;;;;;;5021835;28;20022;-83
2023/10/24 11:25:11;;;;;;;5.55;3.05;;;13.20;99.90;;;;;;5029597;28;20036;-84
2023/10/24 11:27:38;;;;;;;5.38;3.30;;;13.20;99.90;;;;;;5022319;28;20060;-83
2023/10/24 11:30:05;;;;;;;7.07;3.90;;;;;;;;;;5026532;28;20036;-81
2023/10/24 11:32:31;;;;;;;9.50;4.75;;;;;;;;;;5027469;28;20030;-82
2023/10/24 11:34:57;;;;;;;6.93;3.92;;;;;;;;;;5030609;28;20488;-83
2023/10/24 11:37:23;;;;;;;6.88;3.47;;;;;;;;;;5025836;28;20041;-83
2023/10/24 11:39:49;;;;;;;5.07;3.15;;;;;;;;;;5030953;28;20056;-83
2023/10/24 11:42:15;;;;;;;8.10;4.10;;;;;;;;;;5017968;28;20029;-83
2023/10/24 11:44:41;;;;;;;10.35;4.00;;;;;;;;;;5024411;28;20033;-82
2023/10/24 11:47:14;;;;;;;7.22;4.43;;;13.20;99.90;;;;;;5018622;28;20372;-82
2023/10/24 11:49:40;;;;;;;7.72;4.03;;;12.80;99.90;;;;;;5029794;28;20029;-82
2023/10/24 11:52:06;;;;;;;8.98;4.05;;;;;;;;;;5021814;28;20044;-83
2023/10/24 11:54:32;;;;;;;9.73;4.47;;;;;;;;;;5023789;28;20029;-84
2023/10/24 11:56:59;;;;;;;6.78;3.83;;;;;;;;;;5027984;28;20022;-83
2023/10/24 11:59:33;;;;;;;4.80;3.28;;;13.30;99.90;;;;;;5026957;28;20033;-82
2023/10/24 12:01:59;;;;;;;6.45;3.55;;;;;;;;;;5019855;28;20514;-83
2023/10/24 12:04:25;;;;;;;8.05;4.05;;;13.30;99.90;;;;;;5023189;28;20060;-81
2023/10/24 12:07:02;;;;;;;10.65;3.85;;;12.40;99.90;;;;;;5023810;28;20056;-82
2023/10/24 12:09:28;;;;;;;4.35;2.90;;;;;;;;;;5021230;28;20029;-82
2023/10/24 12:11:56;;;;;;;5.18;3.08;;;;;;;;;;5020719;28;20032;-84
2023/10/24 12:14:22;;;;;;;7.13;3.15;;;;;;;;;;5018268;28;20488;-82
2023/10/24 12:16:48;;;;;;;7.28;4.03;;;;;;;;;;5022950;28;20036;-84
2023/10/24 12:19:14;;;;;;;6.93;3.83;;;;;;;;;;5020077;28;20044;-82
2023/10/24 12:21:40;;;;;;;6.10;3.30;;;;;;;;;;5018164;28;20049;-82
2023/10/24 12:24:06;;;;;;;9.52;4.50;;;14.00;99.90;;;;;;5013695;28;20411;-83
2023/10/24 12:26:32;;;;;;;9.07;3.47;;;;;;;;;;5027184;28;20048;-84
2023/10/24 12:28:57;;;;;;;6.85;3.75;;;;;;;;;;5015717;28;20071;-87
2023/10/24 12:31:24;;;;;;;5.07;3.22;;;;;;;;;;5030213;28;20032;-84
2023/10/24 12:33:50;;;;;;;15.13;4.20;;;;;;;;;;5025669;28;20033;-83
2023/10/24 12:36:16;;;;;;;5.60;3.03;;;12.80;99.90;;;;;;5030524;28;20128;-84
2023/10/24 12:38:42;;;;;;;5.47;3.00;;;;;;;;;;5035467;28;20026;-83
2023/10/24 12:41:08;;;;;;;6.43;3.70;;;;;;;;;;5027848;28;20140;-85
2023/10/24 12:43:34;;;;;;;7.53;3.20;;;;;;;;;;5021905;28;20503;-82
2023/10/24 12:46:00;;;;;;;5.97;3.67;;;;;;;;;;5015360;28;20767;-84
2023/10/24 12:48:26;;;;;;;5.57;3.42;;;12.90;99.90;;;;;;5019277;28;20029;-83
2023/10/24 12:50:52;;;;;;;8.25;3.92;;;;;;;;;;5022882;28;20036;-83
2023/10/24 12:53:20;;;;;;;8.38;3.67;;;;;;;;;;5023731;28;20098;-81
2023/10/24 12:55:46;;;;;;;9.10;4.35;;;;;;;;;;5023991;28;20040;-82
2023/10/24 12:58:12;;;;;;;5.50;2.83;;;;;;;;;;5021661;28;20048;-81
2023/10/24 13:00:38;;;;;;;7.93;3.35;;;;;;;;;;5033207;28;20025;-83
2023/10/24 13:03:04;;;;;;;6.68;3.85;;;;;;;;;;5035694;28;20044;-83
2023/10/24 13:05:31;;;;;;;5.03;3.15;;;;;;;;;;5030399;28;20530;-81
2023/10/24 13:07:58;;;;;;;4.47;2.85;;;13.00;99.90;;;;;;5025458;28;20099;-82
2023/10/24 13:10:25;;;;;;;7.15;3.35;;;;;;;;;;5016624;28;20042;-82
2023/10/24 13:12:50;;;;;;;8.80;3.55;;;;;;;;;;5030954;28;20442;-84
2023/10/24 13:15:16;;;;;;;6.78;3.13;;;;;;;;;;5038931;28;20037;-83
2023/10/24 13:17:42;;;;;;;6.30;3.90;;;;;;;;;;5032546;28;20581;-84
2023/10/24 13:20:09;;;;;;;8.13;3.40;;;13.20;99.90;;;;;;5031376;28;20069;-82
2023/10/24 13:22:35;;;;;;;11.30;4.45;;;;;;;;;;5036196;28;20029;-82
2023/10/24 13:25:01;;;;;;;8.38;3.97;;;;;;;;;;5035816;28;20040;-83
2023/10/24 13:27:27;;;;;;;6.40;4.10;;;;;;;;;;5036130;28;20100;-83
2023/10/24 13:29:53;;;;;;;5.10;2.70;;;;;;;;;;5039688;28;20028;-84
2023/10/24 13:32:18;;;;;;;5.07;3.47;;;;;;;;;;5023573;28;20026;-84
2023/10/24 13:34:44;;;;;;;6.45;3.42;;;;;;;;;;5034258;28;20128;-84
2023/10/24 13:37:10;;;;;;;4.72;2.78;;;;;;;;;;5037385;28;20044;-85
2023/10/24 13:39:36;;;;;;;5.97;3.17;;;;;;;;;;5032950;28;20034;-86
2023/10/24 13:42:04;;;;;;;9.30;3.10;;;;;;;;;;5036600;28;20048;-85
2023/10/24 13:44:30;;;;;;;6.93;3.30;;;;;;;;;;5034105;28;20057;-86
2023/10/24 13:46:57;;;;;;;6.88;3.95;;;;;;;;;;5037666;28;20032;-83
2023/10/24 13:49:23;;;;;;;8.45;3.53;;;;;;;;;;5036736;28;20030;-85
2023/10/24 13:51:49;;;;;;;14.25;3.88;;;;;;;;;;5039484;28;20036;-85
2023/10/24 13:54:15;;;;;;;7.00;3.85;;;;;;;;;;5036842;28;20384;-86
2023/10/24 13:56:41;;;;;;;5.72;3.65;;;14.00;99.90;;;;;;5038575;28;20151;-85
2023/10/24 13:59:07;;;;;;;8.70;3.97;;;;;;;;;;5034997;28;20084;-85
2023/10/24 14:01:33;;;;;;;6.97;3.90;;;;;;;;;;5027380;28;20026;-85
2023/10/24 14:04:01;;;;;;;6.68;3.40;;;13.00;99.90;;;;;;5034140;28;20022;-85
2023/10/24 14:06:28;;;;;;;5.18;2.97;;;13.60;99.90;;;;;;5034207;28;20064;-87